Terminal Aerodrome Forecast
Issued by NWS Grand Forks, ND

Home | Current Version | Previous Version | Graphics & Text | Print | Product List | Glossary On
Versions: 1 2 3 4 5 6 7 8 9 10 11 12 13 14 15 16 17 18 19 20 21
000
FTUS43 KFGF 261329 AAA
TAFFAR
TAF AMD
KFAR 261329Z 2613/2712 36015G23KT 3SM -SN OVC010
      TEMPO 2613/2617 1SM -SN OVC008
     FM261700 01016G24KT 2SM -SN OVC010
     FM270000 01013KT 3SM -SN OVC010
     FM270100 01011KT P6SM OVC015
     FM271100 35011KT P6SM BKN015=

USA.gov is the U.S. government's official web portal to all federal, state and local government web resources and services.